Terminal Aerodrome Forecast
Issued by NWS

Home | Current Version | Previous Version | Text Only | Print | Product List | Glossary On
Versions: 1 2 3 4 5 6 7 8 9 10 11 12 13 14
079
FTUS43 KMQT 010526
TAFCMX
TAF
KCMX 010526Z 0106/0206 05010KT P6SM BKN035
     FM012100 04005KT P6SM SCT040
     FM020300 33003KT P6SM SKC=

USA.gov is the U.S. government's official web portal to all federal, state and local government web resources and services.